Pagina principală
METAR-TAF:

METAR-TAF

Aeroporturi :

Saint Vincent, Sfântul Vincențiu

Latitudine: 13-09-23N, longitudine: 061-09-01W, elevație: 41 m

Observații meteo curente

Raportul a fost făcut în urmă cu 20 de minute, la 15:00 UTC
Vânt 12 kt de la Nord-est
Temperatură 31°C
Umiditate 75%
Presiune 1016 hPa
Vizibilitate de 10 km sau mai mult
Nori puțini la o înălțime de 2000 picior

METAR: TVSA 251500Z 05012KT 9999 FEW020 31/26 Q1016 NOSIG

Ora: 11:20 (15:20 UTC)

Prognoză

Raportul a fost făcut în urmă cu 4 ore și 20 de minute, la 11:00 UTC
Prognoză valabilă de la 25 ora 12 UTC la 26 ora 12 UTC
Vânt 15 kt de la Est/Nord-est
Vizibilitate de 10 km sau mai mult
Nori împrăștiați la o înălțime de 1800 picior

TAF: TVSA 251100Z 2512/2612 07015KT 9999 SCT018

Observații și prognoze meteo pentru peste 4.000 de aeroporturi (rapoarte METAR și TAF).

Stațiile disponibile sunt reprezentate pe hartă prin puncte galbene și roșii.

Țineți indicatorul mouse-ului pe punctul dorit pentru a vedea denumirea stației.

Apoi, faceți clic pentru a vedea observațiile și prognozele meteorologice.

Pentru a schimba harta: Pentru mărire, faceți clic pe butoanele verzi cu cruce neagră; pentru micșorare, pe butonul verde cu o liniuță; pentru hărți învecinate, pe săgețile verzi.


METAR-TAF: